Time;durP1;ratioP1;P1;durP2;ratioP2;P2;SDS_P1;SDS_P2;PMS_P1;PMS_P2;Temp;Humidity;BMP_temperature;BMP_pressure;BME280_temperature;BME280_humidity;BME280_pressure;Samples;Min_cycle;Max_cycle;Signal;HPM_P1;HPM_P2
2022/01/15 00:01:34;;;;;;;8.80;3.22;;;6.10;99.90;;;;;;5095638;28;20513;-74
2022/01/15 00:04:00;;;;;;;6.35;2.47;;;6.10;99.90;;;;;;5077353;28;20040;-75
2022/01/15 00:06:25;;;;;;;7.15;2.88;;;6.10;99.90;;;;;;5095421;28;20084;-75
2022/01/15 00:08:51;;;;;;;7.93;2.35;;;6.10;99.90;;;;;;5095737;28;20043;-75
2022/01/15 00:11:17;;;;;;;6.70;2.50;;;6.10;99.90;;;;;;5095501;28;20381;-74
2022/01/15 00:13:44;;;;;;;7.65;3.03;;;6.50;99.90;;;;;;5094838;28;20036;-75
2022/01/15 00:16:15;;;;;;;6.63;2.70;;;6.00;99.90;;;;;;5095163;28;20093;-75
2022/01/15 00:18:44;;;;;;;7.68;2.75;;;6.10;99.90;;;;;;5095481;28;20044;-74
2022/01/15 00:21:11;;;;;;;6.93;2.58;;;6.00;99.90;;;;;;5095061;28;20036;-75
2022/01/15 00:23:36;;;;;;;6.55;2.47;;;6.00;99.90;;;;;;5095483;28;20123;-75
2022/01/15 00:26:02;;;;;;;6.90;2.70;;;6.40;99.90;;;;;;5077243;28;20167;-74
2022/01/15 00:28:28;;;;;;;9.15;2.50;;;6.00;99.90;;;;;;5077268;28;20109;-74
2022/01/15 00:30:54;;;;;;;7.50;2.58;;;6.10;99.90;;;;;;5094392;28;20087;-74
2022/01/15 00:33:19;;;;;;;6.20;2.10;;;6.10;99.90;;;;;;5095005;28;20083;-75
2022/01/15 00:35:45;;;;;;;7.10;2.35;;;6.10;99.90;;;;;;5094973;28;20123;-75
2022/01/15 00:38:11;;;;;;;6.65;2.38;;;6.10;99.90;;;;;;5076875;28;20075;-76
2022/01/15 00:40:36;;;;;;;4.55;1.67;;;6.10;99.90;;;;;;5094855;28;20090;-75
2022/01/15 00:43:02;;;;;;;6.50;1.75;;;6.00;99.90;;;;;;5095112;28;20044;-75
2022/01/15 00:45:32;;;;;;;4.47;1.80;;;6.00;99.90;;;;;;5076575;28;20372;-75
2022/01/15 00:47:58;;;;;;;5.25;2.10;;;6.10;99.90;;;;;;5094556;28;20048;-75
2022/01/15 00:50:24;;;;;;;6.00;2.10;;;6.00;99.90;;;;;;5094627;28;20497;-76
2022/01/15 00:52:50;;;;;;;6.28;2.08;;;6.00;99.90;;;;;;5094573;28;20114;-75
2022/01/15 00:55:18;;;;;;;5.75;1.90;;;6.00;99.90;;;;;;5094599;28;20130;-76
2022/01/15 00:57:45;;;;;;;6.45;1.90;;;6.40;99.90;;;;;;5094755;28;20502;-76
2022/01/15 01:00:14;;;;;;;5.22;1.70;;;6.00;99.90;;;;;;5094810;28;20040;-75
2022/01/15 01:02:40;;;;;;;6.53;1.83;;;6.00;99.90;;;;;;5094214;28;20043;-75
2022/01/15 01:05:06;;;;;;;4.65;1.63;;;6.00;99.90;;;;;;5094324;28;20089;-75
2022/01/15 01:07:32;;;;;;;4.90;1.67;;;6.00;99.90;;;;;;5094319;28;20096;-73
2022/01/15 01:23:25;;;;;;;3.88;1.38;;;5.90;99.90;;;;;;5011826;28;20476;-75
2022/01/15 01:25:57;;;;;;;4.47;1.60;;;5.90;99.90;;;;;;5011194;28;20124;-74
2022/01/15 01:28:36;;;;;;;5.22;1.50;;;5.90;99.90;;;;;;5011939;28;20417;-75
2022/01/15 01:31:13;;;;;;;4.80;1.17;;;5.90;99.90;;;;;;5011526;28;20057;-75
2022/01/15 01:33:44;;;;;;;4.07;1.30;;;5.80;99.90;;;;;;5011313;28;20077;-75
2022/01/15 01:38:43;;;;;;;3.70;1.10;;;5.80;99.90;;;;;;5011647;28;20060;-75
2022/01/15 01:41:15;;;;;;;3.45;0.90;;;5.80;99.90;;;;;;5011507;28;20493;-74
2022/01/15 01:43:47;;;;;;;5.03;0.80;;;5.80;99.90;;;;;;5011421;28;20160;-75
2022/01/15 01:48:39;;;;;;;2.40;0.93;;;5.80;99.90;;;;;;5031348;28;20055;-75
2022/01/15 01:51:08;;;;;;;2.75;1.20;;;5.80;99.90;;;;;;5093498;28;20040;-75
2022/01/15 01:53:37;;;;;;;3.63;1.00;;;5.80;99.90;;;;;;5075270;28;20487;-75
2022/01/15 01:56:04;;;;;;;3.58;1.17;;;5.80;99.90;;;;;;5093240;28;20525;-75
2022/01/15 01:58:29;;;;;;;4.32;1.10;;;5.80;99.90;;;;;;5093280;28;20491;-74
2022/01/15 02:00:55;;;;;;;3.67;1.15;;;5.80;99.90;;;;;;5093229;28;20104;-75
2022/01/15 02:03:21;;;;;;;3.50;1.20;;;5.80;99.90;;;;;;5093452;28;20389;-74
2022/01/15 02:05:46;;;;;;;3.45;1.13;;;5.80;99.90;;;;;;5092819;28;20043;-74
2022/01/15 02:08:12;;;;;;;3.50;1.30;;;5.80;99.90;;;;;;5093168;28;20047;-75
2022/01/15 02:10:38;;;;;;;3.83;1.23;;;5.80;99.90;;;;;;5092959;28;20047;-75
2022/01/15 02:13:08;;;;;;;3.00;1.30;;;5.80;99.90;;;;;;5092942;28;20356;-75
2022/01/15 02:15:36;;;;;;;3.80;1.38;;;5.80;99.90;;;;;;5093058;28;20479;-75
2022/01/15 02:18:02;;;;;;;5.50;1.60;;;5.90;99.90;;;;;;5092888;28;20533;-75
2022/01/15 02:25:55;;;;;;;5.35;1.70;;;5.80;99.90;;;;;;5074898;28;20134;-75
2022/01/15 02:28:30;;;;;;;6.88;2.20;;;5.90;99.90;;;;;;5092923;28;20170;-76
2022/01/15 02:31:00;;;;;;;5.80;2.00;;;5.80;99.90;;;;;;5071237;28;20059;-73
2022/01/15 02:33:26;;;;;;;4.80;1.70;;;6.20;99.90;;;;;;5072490;28;20572;-75
2022/01/15 02:35:52;;;;;;;7.65;2.00;;;5.80;99.90;;;;;;5072104;28;20442;-75
2022/01/15 02:38:18;;;;;;;5.38;1.88;;;5.80;99.90;;;;;;5071137;28;20059;-75
2022/01/15 02:40:44;;;;;;;7.03;2.00;;;5.80;99.90;;;;;;5072446;28;20045;-75
2022/01/15 02:43:14;;;;;;;6.93;2.20;;;5.80;99.90;;;;;;5072570;28;20049;-73
2022/01/15 02:45:44;;;;;;;7.50;2.15;;;6.10;99.90;;;;;;5072624;28;20036;-75
2022/01/15 02:48:15;;;;;;;5.93;2.42;;;5.80;99.90;;;;;;5072367;28;20178;-75
2022/01/15 02:50:43;;;;;;;7.75;2.38;;;5.80;99.90;;;;;;5071028;28;20053;-75
2022/01/15 02:53:10;;;;;;;6.53;2.30;;;5.80;99.90;;;;;;5072047;28;20048;-75
2022/01/15 02:55:41;;;;;;;6.60;2.30;;;5.80;99.90;;;;;;5072337;28;20056;-75
2022/01/15 02:58:07;;;;;;;8.30;2.72;;;5.80;99.90;;;;;;5071300;28;20056;-73
2022/01/15 03:00:33;;;;;;;6.55;2.20;;;5.80;99.90;;;;;;5072169;28;20447;-76
2022/01/15 03:02:59;;;;;;;7.68;2.55;;;5.70;99.90;;;;;;5072155;28;20040;-73
2022/01/15 03:05:24;;;;;;;8.02;2.80;;;5.70;99.90;;;;;;5071167;28;20063;-75
2022/01/15 03:07:50;;;;;;;8.60;3.20;;;5.70;99.90;;;;;;5072149;28;20036;-75
2022/01/15 03:10:16;;;;;;;10.25;3.20;;;5.70;99.90;;;;;;5072410;28;20127;-75
2022/01/15 03:12:42;;;;;;;9.63;2.90;;;5.70;99.90;;;;;;5072806;28;20048;-74
2022/01/15 03:15:08;;;;;;;9.15;3.20;;;5.70;99.90;;;;;;5074265;28;20249;-74
2022/01/15 03:17:35;;;;;;;13.43;2.92;;;5.70;99.90;;;;;;5075449;28;20044;-74
2022/01/15 03:20:03;;;;;;;8.95;2.97;;;5.70;99.90;;;;;;5075055;28;20496;-75
2022/01/15 03:22:29;;;;;;;8.95;3.00;;;5.90;99.90;;;;;;5072131;28;20045;-75
2022/01/15 03:24:55;;;;;;;10.23;3.20;;;5.60;99.90;;;;;;5072207;28;20056;-76
2022/01/15 03:27:23;;;;;;;9.60;3.20;;;5.60;99.90;;;;;;5072343;28;20864;-75
2022/01/15 03:29:51;;;;;;;10.05;3.35;;;5.60;99.90;;;;;;5070536;28;20059;-75
2022/01/15 03:32:17;;;;;;;10.48;3.15;;;5.70;99.90;;;;;;5070670;28;20064;-75
2022/01/15 03:34:43;;;;;;;8.70;2.90;;;5.60;99.90;;;;;;5072013;28;20091;-75
2022/01/15 03:37:09;;;;;;;8.25;2.85;;;5.60;99.90;;;;;;5072003;28;20080;-75
2022/01/15 03:39:35;;;;;;;10.73;3.17;;;6.10;99.90;;;;;;5070102;28;20396;-75
2022/01/15 03:42:02;;;;;;;8.95;3.20;;;5.60;99.90;;;;;;5071882;28;20052;-75
2022/01/15 03:44:27;;;;;;;10.13;3.42;;;5.60;99.90;;;;;;5071884;28;20056;-75
2022/01/15 03:46:53;;;;;;;10.57;3.28;;;5.60;99.90;;;;;;5072090;28;20523;-75
2022/01/15 03:49:19;;;;;;;8.73;2.78;;;5.60;99.90;;;;;;5072493;28;20094;-75
2022/01/15 03:51:46;;;;;;;8.98;3.40;;;5.60;99.90;;;;;;5074088;28;20057;-75
2022/01/15 03:54:11;;;;;;;9.88;3.10;;;5.60;99.90;;;;;;5074153;28;20036;-75
2022/01/15 03:56:37;;;;;;;10.23;2.97;;;5.60;99.90;;;;;;5075496;28;20548;-74
2022/01/15 03:59:03;;;;;;;8.55;2.80;;;5.60;99.90;;;;;;5075448;28;20048;-75
2022/01/15 04:01:28;;;;;;;9.65;3.05;;;5.80;99.90;;;;;;5075390;28;20048;-75
2022/01/15 04:03:54;;;;;;;10.68;2.95;;;5.60;99.90;;;;;;5073969;28;20041;-75
2022/01/15 04:06:20;;;;;;;8.55;2.88;;;6.10;99.90;;;;;;5074035;28;20127;-75
2022/01/15 04:08:45;;;;;;;11.68;3.13;;;5.60;99.90;;;;;;5075377;28;20052;-75
2022/01/15 04:11:11;;;;;;;12.25;3.13;;;5.60;99.90;;;;;;5073283;28;20040;-74
2022/01/15 04:13:36;;;;;;;9.88;3.55;;;5.90;99.90;;;;;;5075182;28;20040;-76
2022/01/15 04:16:02;;;;;;;8.50;3.10;;;5.60;99.90;;;;;;5075112;28;20080;-75
2022/01/15 04:18:35;;;;;;;9.23;2.63;;;5.60;99.90;;;;;;5075031;28;20571;-73
2022/01/15 04:21:01;;;;;;;12.07;3.03;;;5.60;99.90;;;;;;5075174;28;20060;-74
2022/01/15 04:23:27;;;;;;;8.40;2.80;;;5.60;99.90;;;;;;5074969;28;20133;-75
2022/01/15 04:25:52;;;;;;;9.80;3.13;;;5.60;99.90;;;;;;5074608;28;20041;-74
2022/01/15 04:28:18;;;;;;;8.52;3.10;;;5.60;99.90;;;;;;5074897;28;20056;-75
2022/01/15 04:30:47;;;;;;;8.77;2.33;;;5.60;99.90;;;;;;5079303;28;20402;-74
2022/01/15 04:33:13;;;;;;;8.45;2.40;;;5.60;99.90;;;;;;5094857;28;20109;-74
2022/01/15 04:35:39;;;;;;;8.15;2.50;;;5.60;99.90;;;;;;5095114;28;20039;-74
2022/01/15 04:38:09;;;;;;;9.52;2.80;;;5.60;99.90;;;;;;5094983;28;20054;-75
2022/01/15 04:40:35;;;;;;;6.25;2.50;;;5.60;99.90;;;;;;5094407;28;20044;-75
2022/01/15 04:43:01;;;;;;;9.52;2.45;;;5.60;99.90;;;;;;5094542;28;20090;-75
2022/01/15 04:45:27;;;;;;;9.30;2.80;;;5.50;99.90;;;;;;5094683;28;20040;-75
2022/01/15 04:47:53;;;;;;;7.50;2.60;;;5.50;99.90;;;;;;5094705;28;20044;-75
2022/01/15 04:50:20;;;;;;;8.02;2.30;;;5.50;99.90;;;;;;5076902;28;20052;-75
2022/01/15 04:52:46;;;;;;;8.93;2.50;;;6.10;99.90;;;;;;5094454;28;20119;-73
2022/01/15 04:55:13;;;;;;;13.23;2.67;;;5.50;99.90;;;;;;5094775;28;20131;-74
2022/01/15 04:57:40;;;;;;;7.10;2.20;;;5.40;99.90;;;;;;5075997;28;20052;-76
2022/01/15 05:00:12;;;;;;;7.60;2.28;;;5.50;99.90;;;;;;5094451;28;20040;-75
2022/01/15 05:02:38;;;;;;;8.25;2.10;;;5.40;99.90;;;;;;5094211;28;20123;-74
2022/01/15 05:05:04;;;;;;;9.93;2.28;;;5.40;99.90;;;;;;5094177;28;20132;-75
2022/01/15 05:07:30;;;;;;;6.50;2.38;;;5.40;99.90;;;;;;5094187;28;20044;-75
2022/01/15 05:09:56;;;;;;;7.68;2.20;;;5.40;99.90;;;;;;5076247;28;20389;-75
2022/01/15 05:12:31;;;;;;;8.45;2.40;;;5.40;99.90;;;;;;5093827;28;20072;-75
2022/01/15 05:14:57;;;;;;;6.68;1.90;;;5.40;99.90;;;;;;5094027;28;20048;-75
2022/01/15 05:17:24;;;;;;;6.45;1.88;;;5.40;99.90;;;;;;5093963;28;20048;-75
2022/01/15 05:19:49;;;;;;;6.80;1.85;;;5.40;99.90;;;;;;5094283;28;20044;-74
2022/01/15 05:22:15;;;;;;;7.07;2.30;;;5.90;99.90;;;;;;5094105;28;20100;-74
2022/01/15 05:24:41;;;;;;;5.55;1.85;;;6.00;99.90;;;;;;5094027;28;20086;-75
2022/01/15 05:27:07;;;;;;;8.10;1.98;;;5.40;99.90;;;;;;5093930;28;20067;-75
2022/01/15 05:29:33;;;;;;;6.47;1.98;;;5.40;99.90;;;;;;5093456;28;20043;-75
2022/01/15 05:31:58;;;;;;;7.05;2.22;;;5.50;99.90;;;;;;5093570;28;20415;-75
2022/01/15 05:34:24;;;;;;;8.18;2.10;;;5.40;99.90;;;;;;5093711;28;20473;-75
2022/01/15 05:36:50;;;;;;;8.52;2.38;;;5.40;99.90;;;;;;5093925;28;20044;-75
2022/01/15 05:39:15;;;;;;;6.85;2.08;;;5.40;99.90;;;;;;5093768;28;20075;-75
2022/01/15 05:41:41;;;;;;;8.48;2.13;;;5.40;99.90;;;;;;5093484;28;20036;-74
2022/01/15 05:44:07;;;;;;;7.15;2.13;;;5.40;99.90;;;;;;5093187;28;20097;-75
2022/01/15 05:46:33;;;;;;;7.65;2.10;;;6.00;99.90;;;;;;5075466;28;20040;-76
2022/01/15 05:49:00;;;;;;;7.97;2.40;;;5.40;99.90;;;;;;5075184;28;20083;-74
2022/01/15 05:51:29;;;;;;;7.60;2.58;;;5.40;99.90;;;;;;5093563;28;20112;-75
2022/01/15 05:54:00;;;;;;;9.90;2.20;;;5.40;99.90;;;;;;5093642;28;20040;-74
2022/01/15 05:56:27;;;;;;;10.60;2.42;;;5.40;99.90;;;;;;5093580;28;20051;-74
2022/01/15 05:58:52;;;;;;;7.78;2.40;;;5.40;99.90;;;;;;5093419;28;20137;-75
2022/01/15 06:01:19;;;;;;;10.35;2.40;;;5.40;99.90;;;;;;5074883;28;20048;-75
2022/01/15 06:03:45;;;;;;;7.05;2.30;;;5.40;99.90;;;;;;5075237;28;20123;-75
2022/01/15 06:06:11;;;;;;;9.93;2.60;;;5.60;99.90;;;;;;5093631;28;20079;-75
2022/01/15 06:08:36;;;;;;;7.43;2.10;;;5.40;99.90;;;;;;5093361;28;20130;-73
2022/01/15 06:11:02;;;;;;;7.20;2.38;;;5.40;99.90;;;;;;5092933;28;20048;-75
2022/01/15 06:13:28;;;;;;;12.02;2.63;;;5.40;99.90;;;;;;5093245;28;20040;-76
2022/01/15 06:15:53;;;;;;;9.63;2.33;;;5.40;99.90;;;;;;5092825;28;20560;-75
2022/01/15 06:18:19;;;;;;;13.95;2.78;;;5.40;99.90;;;;;;5074954;28;20036;-75
2022/01/15 06:20:44;;;;;;;11.05;2.55;;;5.30;99.90;;;;;;5093283;28;20048;-75
2022/01/15 06:23:10;;;;;;;11.90;2.75;;;5.30;99.90;;;;;;5093145;28;20044;-75
2022/01/15 06:25:36;;;;;;;9.75;2.40;;;5.30;99.90;;;;;;5093058;28;20061;-76
2022/01/15 06:28:01;;;;;;;8.43;2.58;;;5.30;99.90;;;;;;5092922;28;20127;-75
2022/01/15 06:30:27;;;;;;;10.35;3.03;;;5.30;99.90;;;;;;5074669;28;20052;-75
2022/01/15 06:32:53;;;;;;;9.27;2.17;;;5.30;99.90;;;;;;5092661;28;20055;-75
2022/01/15 06:35:18;;;;;;;8.77;2.35;;;5.30;99.90;;;;;;5092925;28;20126;-75
2022/01/15 06:37:47;;;;;;;8.65;2.15;;;5.30;99.90;;;;;;5093143;28;20092;-75
2022/01/15 06:40:15;;;;;;;8.38;2.55;;;5.30;99.90;;;;;;5092822;28;20479;-74
2022/01/15 06:42:40;;;;;;;11.80;2.67;;;5.30;99.90;;;;;;5093022;28;20082;-75
2022/01/15 06:45:07;;;;;;;8.65;2.50;;;5.50;99.90;;;;;;5092925;28;20082;-74
2022/01/15 06:47:33;;;;;;;8.57;2.90;;;5.20;99.90;;;;;;5074600;28;20100;-75
2022/01/15 06:49:58;;;;;;;10.00;2.63;;;5.20;99.90;;;;;;5092781;28;20399;-75
2022/01/15 06:52:24;;;;;;;7.50;2.35;;;5.30;99.90;;;;;;5093074;28;20154;-75
2022/01/15 06:54:50;;;;;;;8.25;2.40;;;5.30;99.90;;;;;;5075014;28;20048;-75
2022/01/15 06:57:17;;;;;;;6.70;2.50;;;5.30;99.90;;;;;;5093148;28;20040;-76
2022/01/15 06:59:44;;;;;;;9.25;2.58;;;5.30;99.90;;;;;;5075248;28;20040;-76
2022/01/15 07:02:11;;;;;;;7.38;2.47;;;5.30;99.90;;;;;;5093256;28;20039;-75
2022/01/15 07:04:38;;;;;;;8.63;2.90;;;5.30;99.90;;;;;;5093319;28;20450;-76
2022/01/15 07:07:03;;;;;;;7.03;2.60;;;5.60;99.90;;;;;;5093305;28;20120;-75
2022/01/15 07:09:29;;;;;;;4.07;1.40;;;5.30;99.90;;;;;;5093408;28;20047;-75
2022/01/15 07:11:56;;;;;;;7.30;1.80;;;5.30;99.90;;;;;;5097499;28;20514;-76
2022/01/15 07:14:22;;;;;;;7.15;2.08;;;5.30;99.90;;;;;;5103322;28;20036;-76
2022/01/15 07:16:47;;;;;;;6.47;2.00;;;5.30;99.90;;;;;;5086212;28;20535;-76
2022/01/15 07:19:13;;;;;;;6.35;1.90;;;5.30;99.90;;;;;;5103288;28;20055;-76
2022/01/15 07:21:39;;;;;;;4.68;1.65;;;5.30;99.90;;;;;;5102548;28;20044;-76
2022/01/15 07:24:05;;;;;;;7.63;2.20;;;5.40;99.90;;;;;;5095076;28;20040;-76
2022/01/15 07:26:30;;;;;;;5.93;1.63;;;5.40;99.90;;;;;;5096533;28;20039;-76
2022/01/15 07:28:58;;;;;;;7.05;1.65;;;5.40;99.90;;;;;;5096312;28;20472;-76
2022/01/15 07:31:23;;;;;;;4.75;1.67;;;5.40;99.90;;;;;;5077566;28;20562;-74
2022/01/15 07:33:54;;;;;;;5.78;1.67;;;5.40;99.90;;;;;;5093895;28;20131;-75
2022/01/15 07:36:22;;;;;;;4.40;1.48;;;5.40;99.90;;;;;;5092950;28;20059;-73
2022/01/15 07:38:48;;;;;;;4.38;1.45;;;6.10;99.90;;;;;;5101967;28;20070;-73
2022/01/15 07:41:14;;;;;;;3.72;1.30;;;5.40;99.90;;;;;;5090389;28;20040;-73
2022/01/15 07:43:43;;;;;;;5.63;1.58;;;5.40;99.90;;;;;;5094934;28;20040;-75
2022/01/15 07:46:10;;;;;;;6.60;1.30;;;5.40;99.90;;;;;;5095113;28;20047;-74
2022/01/15 07:48:36;;;;;;;4.78;1.33;;;5.30;99.90;;;;;;5095380;28;20426;-73
2022/01/15 07:51:02;;;;;;;6.05;1.45;;;5.40;99.90;;;;;;5094828;28;20144;-73
2022/01/15 07:53:27;;;;;;;7.15;1.98;;;6.60;99.90;;;;;;5095399;28;20486;-73
2022/01/15 07:55:53;;;;;;;8.38;1.50;;;5.80;99.90;;;;;;5082427;28;20372;-73
2022/01/15 07:58:19;;;;;;;6.63;1.67;;;5.40;99.90;;;;;;5082420;28;20066;-75
2022/01/15 08:00:45;;;;;;;10.48;2.05;;;5.40;99.90;;;;;;5097916;28;20115;-74
2022/01/15 08:03:11;;;;;;;5.63;1.50;;;5.40;99.90;;;;;;5098135;28;20093;-73
2022/01/15 08:05:37;;;;;;;6.38;1.80;;;5.40;99.90;;;;;;5097761;28;20039;-75
2022/01/15 08:08:02;;;;;;;7.05;2.15;;;5.40;99.90;;;;;;5078126;28;20437;-73
2022/01/15 08:10:28;;;;;;;5.43;1.70;;;5.40;99.90;;;;;;5094195;28;20047;-76
2022/01/15 08:12:54;;;;;;;6.68;1.80;;;5.40;99.90;;;;;;5094504;28;20032;-76
2022/01/15 08:15:21;;;;;;;6.05;1.73;;;5.40;99.90;;;;;;5094220;28;20047;-75
2022/01/15 08:17:48;;;;;;;6.47;1.90;;;5.40;99.90;;;;;;5094725;28;20490;-76
2022/01/15 08:20:14;;;;;;;6.40;1.95;;;5.40;99.90;;;;;;5093704;28;20398;-75
2022/01/15 08:22:40;;;;;;;8.18;2.20;;;5.90;99.90;;;;;;5091284;28;20040;-73
2022/01/15 08:25:07;;;;;;;9.95;2.00;;;6.50;99.90;;;;;;5093961;28;20475;-76
2022/01/15 08:27:33;;;;;;;6.13;1.58;;;5.50;99.90;;;;;;5074500;28;20056;-73
2022/01/15 08:29:58;;;;;;;6.32;1.70;;;5.60;99.90;;;;;;5075373;28;20051;-74
2022/01/15 08:32:24;;;;;;;6.22;1.40;;;5.50;99.90;;;;;;5074784;28;20058;-75
2022/01/15 08:34:50;;;;;;;7.45;1.70;;;6.10;99.90;;;;;;5150024;22;20044;-75
2022/01/15 08:37:16;;;;;;;6.07;1.52;;;5.50;99.90;;;;;;5074753;28;20105;-76
2022/01/15 08:39:41;;;;;;;5.75;1.55;;;5.50;99.90;;;;;;5058711;28;20044;-74
2022/01/15 08:42:09;;;;;;;5.82;1.52;;;5.50;99.90;;;;;;5076362;28;20048;-75
2022/01/15 08:44:36;;;;;;;4.10;1.25;;;5.60;99.90;;;;;;5076500;28;20082;-73
2022/01/15 08:47:03;;;;;;;3.70;1.60;;;5.60;99.90;;;;;;5075320;28;20062;-76
2022/01/15 08:49:28;;;;;;;6.63;1.70;;;5.60;99.90;;;;;;5093493;28;20036;-74
2022/01/15 08:51:56;;;;;;;5.68;1.48;;;5.70;99.90;;;;;;5092536;28;20109;-73
2022/01/15 08:54:21;;;;;;;4.75;1.55;;;5.70;99.90;;;;;;5093546;28;20110;-75
2022/01/15 08:56:47;;;;;;;3.13;1.02;;;5.70;99.90;;;;;;5093053;28;20499;-76
2022/01/15 08:59:13;;;;;;;8.35;1.90;;;5.70;99.90;;;;;;5093165;28;20047;-76
2022/01/15 09:01:38;;;;;;;6.70;1.50;;;5.70;99.90;;;;;;5094108;28;20220;-77
2022/01/15 09:04:04;;;;;;;8.02;2.13;;;5.70;99.90;;;;;;5094235;28;20085;-76
2022/01/15 09:06:30;;;;;;;5.15;1.45;;;5.70;99.90;;;;;;5075247;28;20036;-76
2022/01/15 09:08:55;;;;;;;5.13;2.13;;;5.70;99.90;;;;;;5093835;28;20403;-75
2022/01/15 09:11:21;;;;;;;8.10;1.77;;;5.90;99.90;;;;;;5094301;28;20052;-76
2022/01/15 09:13:48;;;;;;;6.45;1.75;;;5.80;99.90;;;;;;5094327;28;20121;-77
2022/01/15 09:16:14;;;;;;;6.18;1.88;;;5.70;99.90;;;;;;5094223;28;20063;-76
2022/01/15 09:18:39;;;;;;;3.72;1.27;;;5.70;99.90;;;;;;5076009;28;20044;-76
2022/01/15 09:21:05;;;;;;;5.82;2.13;;;5.70;99.90;;;;;;5058850;28;20052;-76
2022/01/15 09:23:31;;;;;;;8.93;2.65;;;5.70;99.90;;;;;;5093404;28;20059;-75
2022/01/15 09:25:58;;;;;;;8.35;2.63;;;5.70;99.90;;;;;;5075873;28;20066;-77
2022/01/15 09:31:10;;;;;;;8.07;3.08;;;5.60;99.90;;;;;;5075735;28;20506;-78
2022/01/15 09:33:36;;;;;;;7.85;2.85;;;5.60;99.90;;;;;;5093901;28;20089;-76
2022/01/15 09:36:02;;;;;;;9.02;3.20;;;5.90;99.90;;;;;;5076081;28;20048;-78
2022/01/15 09:38:28;;;;;;;9.07;3.20;;;5.60;99.90;;;;;;5093610;28;20083;-77
2022/01/15 09:40:55;;;;;;;11.32;3.25;;;5.70;99.90;;;;;;5093583;28;20073;-76
2022/01/15 09:43:21;;;;;;;7.65;2.88;;;5.60;99.90;;;;;;5093777;28;20054;-75
2022/01/15 09:45:47;;;;;;;8.88;3.22;;;5.70;99.90;;;;;;5075102;28;20040;-77
2022/01/15 09:48:15;;;;;;;9.73;2.92;;;5.60;99.90;;;;;;5074927;28;20097;-76
2022/01/15 09:50:43;;;;;;;6.68;2.30;;;5.70;99.90;;;;;;5075576;28;20113;-77
2022/01/15 09:53:10;;;;;;;10.82;2.65;;;5.60;99.90;;;;;;5075185;28;20051;-78
2022/01/15 09:55:37;;;;;;;7.82;2.83;;;5.60;99.90;;;;;;5093279;28;20047;-77
2022/01/15 09:58:03;;;;;;;7.05;2.33;;;6.30;99.90;;;;;;5075666;28;20067;-77
2022/01/15 10:00:30;;;;;;;7.82;2.50;;;5.70;99.90;;;;;;5094128;28;20048;-77
2022/01/15 10:02:56;;;;;;;5.85;2.28;;;5.70;99.90;;;;;;5093595;28;20039;-77
2022/01/15 10:05:23;;;;;;;6.75;2.30;;;5.70;99.90;;;;;;5074881;28;20051;-74
2022/01/15 10:07:59;;;;;;;6.93;2.17;;;5.70;99.90;;;;;;5092357;28;20044;-78
2022/01/15 10:10:26;;;;;;;6.55;1.73;;;5.80;99.90;;;;;;5071570;28;20044;-77
2022/01/15 10:12:52;;;;;;;8.88;1.90;;;5.70;99.90;;;;;;5073867;28;20487;-75
2022/01/15 10:15:19;;;;;;;4.97;1.17;;;5.80;99.90;;;;;;5091498;28;20051;-78
2022/01/15 10:17:44;;;;;;;5.90;1.40;;;5.80;99.90;;;;;;5073698;28;20044;-78
2022/01/15 10:20:13;;;;;;;4.25;1.50;;;5.90;99.90;;;;;;5091836;28;20054;-78
2022/01/15 10:22:44;;;;;;;4.18;1.30;;;5.80;99.90;;;;;;5091485;28;20052;-77
2022/01/15 10:25:18;;;;;;;4.53;1.25;;;6.50;99.90;;;;;;5072656;28;20044;-78
2022/01/15 10:27:47;;;;;;;4.97;1.67;;;5.80;99.90;;;;;;5089135;28;20039;-77
2022/01/15 10:30:42;;;;;;;4.95;1.80;;;6.10;99.90;;;;;;5091495;28;20434;-76
2022/01/15 10:33:09;;;;;;;5.72;2.10;;;5.80;99.90;;;;;;5089398;28;20056;-77
2022/01/15 10:35:37;;;;;;;7.80;2.90;;;5.80;99.90;;;;;;5092463;28;20062;-77
2022/01/15 10:38:04;;;;;;;5.65;2.22;;;5.70;99.90;;;;;;5092936;28;20059;-76
2022/01/15 10:40:55;;;;;;;7.75;3.33;;;5.70;99.90;;;;;;5074761;28;20044;-75
2022/01/15 10:43:29;;;;;;;7.03;3.08;;;5.70;99.90;;;;;;5092249;28;20399;-76
2022/01/15 10:46:01;;;;;;;9.02;3.90;;;5.70;99.90;;;;;;5074689;28;20416;-75
2022/01/15 10:48:32;;;;;;;9.63;3.75;;;5.70;99.90;;;;;;5092104;28;20097;-76
2022/01/15 10:51:05;;;;;;;9.57;4.10;;;6.10;99.90;;;;;;5092869;28;20436;-77
2022/01/15 10:53:46;;;;;;;10.38;4.20;;;5.70;99.90;;;;;;5091576;28;20113;-77
2022/01/15 10:56:14;;;;;;;12.52;5.25;;;5.80;99.90;;;;;;5074023;28;20051;-77
2022/01/15 10:58:42;;;;;;;15.07;4.72;;;5.80;99.90;;;;;;5093898;28;20395;-76
2022/01/15 11:01:11;;;;;;;11.15;4.53;;;5.80;99.90;;;;;;5096871;28;20089;-75
2022/01/15 11:03:40;;;;;;;14.38;5.10;;;5.70;99.90;;;;;;5096933;28;20526;-76
2022/01/15 11:06:06;;;;;;;13.50;6.00;;;5.70;99.90;;;;;;5096731;28;20044;-76
2022/01/15 11:08:42;;;;;;;14.27;6.65;;;5.70;99.90;;;;;;5078724;28;20553;-75
2022/01/15 11:11:11;;;;;;;12.98;5.75;;;5.60;99.90;;;;;;5096940;28;20396;-76
2022/01/15 11:13:39;;;;;;;12.75;5.85;;;5.60;99.90;;;;;;5096142;28;20403;-75
2022/01/15 11:16:08;;;;;;;18.95;6.78;;;5.60;99.90;;;;;;5096505;28;20480;-77
2022/01/15 11:18:41;;;;;;;16.50;6.15;;;5.60;99.90;;;;;;5096676;28;20402;-76
2022/01/15 11:21:15;;;;;;;19.45;8.52;;;5.60;99.90;;;;;;5096700;28;20039;-75
2022/01/15 11:23:43;;;;;;;17.65;8.60;;;5.60;99.90;;;;;;5101839;28;20052;-76
2022/01/15 11:26:11;;;;;;;17.63;7.45;;;5.70;99.90;;;;;;5102023;28;20059;-73
2022/01/15 11:28:38;;;;;;;17.63;7.30;;;5.50;99.90;;;;;;5084510;28;20048;-73
2022/01/15 11:31:14;;;;;;;21.50;8.45;;;5.60;99.90;;;;;;5103646;28;20411;-78
2022/01/15 11:33:48;;;;;;;19.30;7.78;;;5.60;99.90;;;;;;5100132;28;20478;-77
2022/01/15 11:36:41;;;;;;;16.77;7.28;;;5.60;99.90;;;;;;5096603;28;20415;-77
2022/01/15 11:39:11;;;;;;;15.02;6.45;;;5.60;99.90;;;;;;5073392;28;20052;-78
2022/01/15 11:41:40;;;;;;;18.63;7.65;;;5.50;99.90;;;;;;5094873;28;20036;-75
2022/01/15 11:44:15;;;;;;;18.90;8.68;;;5.60;99.90;;;;;;5092034;28;20040;-75
2022/01/15 11:46:53;;;;;;;16.52;6.10;;;5.60;99.90;;;;;;5095686;28;20467;-76
2022/01/15 11:49:30;;;;;;;17.83;7.93;;;5.50;99.90;;;;;;5096065;28;20036;-74
2022/01/15 11:52:22;;;;;;;18.45;7.30;;;5.50;99.90;;;;;;5075347;28;20052;-74
2022/01/15 11:55:02;;;;;;;14.70;5.68;;;5.60;99.90;;;;;;5094582;28;20535;-78
2022/01/15 11:57:29;;;;;;;17.58;7.25;;;5.40;99.90;;;;;;5095820;28;20051;-77
2022/01/15 11:59:58;;;;;;;20.80;7.38;;;5.40;99.90;;;;;;5095552;28;20036;-78
2022/01/15 12:02:30;;;;;;;16.63;6.88;;;5.40;99.90;;;;;;5095655;28;20441;-77
2022/01/15 12:05:18;;;;;;;15.25;5.20;;;5.50;99.90;;;;;;5077856;28;20115;-77
2022/01/15 12:08:08;;;;;;;13.40;6.00;;;5.50;99.90;;;;;;5076838;28;20072;-77
2022/01/15 12:10:52;;;;;;;12.75;4.68;;;5.50;99.90;;;;;;5094867;28;20119;-75
2022/01/15 12:13:20;;;;;;;15.45;5.13;;;5.60;99.90;;;;;;5095880;28;20403;-77
2022/01/15 12:16:08;;;;;;;13.95;5.32;;;5.60;99.90;;;;;;5095219;28;20040;-77
2022/01/15 12:18:44;;;;;;;12.90;5.15;;;5.50;99.90;;;;;;5095862;28;20055;-75
2022/01/15 12:21:10;;;;;;;13.88;5.10;;;5.50;99.90;;;;;;5094783;28;20097;-75
2022/01/15 12:23:36;;;;;;;13.18;4.93;;;5.50;99.90;;;;;;5095066;28;20118;-77
2022/01/15 12:26:09;;;;;;;12.38;5.28;;;5.50;99.90;;;;;;5095371;28;20040;-77
2022/01/15 12:28:34;;;;;;;13.32;5.18;;;6.00;99.90;;;;;;5095195;28;20048;-77
2022/01/15 12:31:00;;;;;;;12.77;5.00;;;5.40;99.90;;;;;;5094933;28;20443;-74
2022/01/15 12:33:26;;;;;;;12.80;4.97;;;5.30;99.90;;;;;;5095076;28;20043;-76
2022/01/15 12:35:56;;;;;;;16.42;5.50;;;5.20;99.90;;;;;;5095103;28;20051;-75
2022/01/15 12:38:27;;;;;;;14.13;5.25;;;5.20;99.90;;;;;;5094950;28;20486;-75
2022/01/15 12:41:04;;;;;;;14.43;5.28;;;5.20;99.90;;;;;;5095194;28;20470;-77
2022/01/15 12:43:35;;;;;;;12.50;4.13;;;5.10;99.90;;;;;;5095413;28;20044;-74
2022/01/15 12:46:13;;;;;;;11.88;5.13;;;5.10;99.90;;;;;;5075575;28;20040;-75
2022/01/15 12:48:45;;;;;;;11.80;5.40;;;5.00;99.90;;;;;;5091238;28;20056;-74
2022/01/15 12:51:21;;;;;;;12.20;4.72;;;5.00;99.90;;;;;;5072582;28;20121;-75
2022/01/15 12:53:50;;;;;;;12.80;4.45;;;5.00;99.90;;;;;;5057752;28;20101;-72
2022/01/15 12:56:20;;;;;;;12.63;4.50;;;5.00;99.90;;;;;;5074854;28;20141;-73
2022/01/15 12:58:47;;;;;;;11.98;4.75;;;5.00;99.90;;;;;;5093404;28;20108;-73
2022/01/15 13:01:20;;;;;;;15.70;5.50;;;5.00;99.90;;;;;;5075971;28;20090;-72
2022/01/15 13:03:45;;;;;;;12.60;5.03;;;5.00;99.90;;;;;;5075982;28;20048;-72
2022/01/15 13:06:11;;;;;;;14.32;6.00;;;5.00;99.90;;;;;;5094474;28;20046;-72
2022/01/15 13:08:41;;;;;;;16.70;7.10;;;5.00;99.90;;;;;;5094661;28;20126;-72
2022/01/15 13:13:42;;;;;;;17.08;6.78;;;5.00;99.90;;;;;;5094537;28;20164;-73
2022/01/15 13:16:13;;;;;;;16.80;7.18;;;5.00;99.90;;;;;;5094770;28;20036;-76
2022/01/15 13:18:39;;;;;;;21.80;7.90;;;5.00;99.90;;;;;;5075732;28;20051;-76
2022/01/15 13:21:07;;;;;;;18.10;7.53;;;5.10;99.90;;;;;;5093921;28;20079;-75
2022/01/15 13:24:07;;;;;;;15.73;7.13;;;5.40;99.90;;;;;;5094741;28;20040;-76
2022/01/15 13:26:38;;;;;;;19.80;8.50;;;5.10;99.90;;;;;;5092183;28;20127;-76
2022/01/15 13:29:11;;;;;;;20.65;8.90;;;5.60;99.90;;;;;;5075977;28;20117;-76